Time;durP1;ratioP1;P1;durP2;ratioP2;P2;SDS_P1;SDS_P2;PMS_P1;PMS_P2;Temp;Humidity;BMP_temperature;BMP_pressure;BME280_temperature;BME280_humidity;BME280_pressure;Samples;Min_cycle;Max_cycle;Signal;HPM_P1;HPM_P2
2021/06/24 00:00:05;;;;;;;7.36;1.97;;;;;;;25.51;49.44;100653.77;443194;117;924751;-71
2021/06/24 00:01:10;;;;;;;7.13;2.47;;;;;;;25.52;49.27;100654.59;440402;117;924045;-70
2021/06/24 00:02:15;;;;;;;4.38;2.45;;;;;;;25.52;49.19;100658.22;439416;117;926620;-71
2021/06/24 00:03:19;;;;;;;6.19;2.04;;;;;;;25.52;49.04;100651.80;438820;117;924187;-69
2021/06/24 00:04:24;;;;;;;4.08;1.76;;;;;;;25.53;48.99;100654.27;443036;117;922884;-72
2021/06/24 00:05:27;;;;;;;8.98;2.13;;;;;;;25.54;48.99;100669.05;439786;118;930536;-71
2021/06/24 00:06:32;;;;;;;8.45;2.58;;;;;;;25.54;48.95;100661.50;438816;118;922649;-72
2021/06/24 00:07:36;;;;;;;4.19;1.80;;;;;;;25.56;49.02;100655.65;437299;119;931058;-69
2021/06/24 00:08:39;;;;;;;5.58;2.10;;;;;;;25.56;49.02;100655.65;439146;117;930384;-69
2021/06/24 00:09:43;;;;;;;3.54;2.22;;;;;;;25.56;48.77;100655.65;438959;118;922605;-69
2021/06/24 00:10:48;;;;;;;3.54;2.12;;;;;;;25.56;48.71;100653.69;439814;117;922531;-69
2021/06/24 00:11:52;;;;;;;5.38;2.06;;;;;;;25.57;48.62;100657.30;442573;117;922547;-69
2021/06/24 00:12:55;;;;;;;6.61;2.17;;;;;;;25.58;48.55;100658.97;440677;116;922723;-71
2021/06/24 00:13:59;;;;;;;4.69;1.82;;;;;;;25.57;48.44;100651.72;440626;118;931510;-71
2021/06/24 00:15:04;;;;;;;8.15;2.49;;;;;;;25.56;48.37;100650.89;439666;116;930578;-70
2021/06/24 00:16:08;;;;;;;2.92;2.22;;;;;;;25.58;48.24;100653.38;442505;118;922597;-69
2021/06/24 00:17:12;;;;;;;5.23;1.90;;;;;;;25.58;48.21;100650.59;439221;119;922556;-70
2021/06/24 00:18:15;;;;;;;9.30;2.27;;;;;;;25.57;47.91;100655.34;445100;116;930612;-71
2021/06/24 00:19:19;;;;;;;5.40;2.46;;;;;;;25.56;47.74;100656.48;439851;117;930514;-72
2021/06/24 00:20:24;;;;;;;7.17;2.29;;;;;;;25.56;47.57;100652.86;441249;118;930498;-70
2021/06/24 00:21:29;;;;;;;3.72;2.09;;;;;;;25.56;47.45;100655.65;443652;116;922830;-71
2021/06/24 00:22:33;;;;;;;7.53;2.29;;;;;;;25.54;47.45;100661.50;439529;116;934188;-71
2021/06/24 00:23:37;;;;;;;3.71;1.67;;;;;;;25.53;47.43;100659.02;439453;116;924820;-71
2021/06/24 00:24:41;;;;;;;4.45;2.04;;;;;;;25.52;47.51;100652.63;441352;117;925420;-70
2021/06/24 00:25:45;;;;;;;5.28;2.26;;;;;;;25.51;47.57;100656.56;445244;119;924489;-71
2021/06/24 00:26:50;;;;;;;3.99;1.96;;;;;;;25.51;47.62;100661.31;442525;116;930999;-70
2021/06/24 00:27:54;;;;;;;4.86;1.80;;;;;;;25.50;47.61;100662.45;440812;117;926988;-69
2021/06/24 00:28:58;;;;;;;2.95;2.08;;;;;;;25.49;47.63;100661.62;442516;116;927346;-70
2021/06/24 00:30:05;;;;;;;6.16;1.81;;;;;;;25.49;47.62;100671.95;440320;118;924645;-70
2021/06/24 00:31:09;;;;;;;5.94;2.41;;;;;;;25.48;47.62;100659.12;440659;116;924543;-69
2021/06/24 00:32:13;;;;;;;5.10;2.06;;;;;;;25.49;47.40;100660.78;442448;118;924378;-71
2021/06/24 00:33:18;;;;;;;5.38;2.09;;;;;;;25.47;47.35;100660.30;440410;116;924373;-70
2021/06/24 00:34:27;;;;;;;6.20;2.18;;;;;;;25.46;47.31;100659.46;440351;118;926690;-71
2021/06/24 00:35:39;;;;;;;3.42;1.79;;;;;;;25.46;47.22;100656.67;440836;118;923810;-73
2021/06/24 00:36:43;;;;;;;7.28;1.97;;;;;;;25.45;47.03;100656.98;439211;118;924516;-69
2021/06/24 00:37:47;;;;;;;7.91;1.91;;;;;;;25.44;46.94;100656.14;441957;116;924049;-70
2021/06/24 00:38:50;;;;;;;4.02;2.58;;;;;;;25.42;46.92;100658.41;441791;116;925767;-69
2021/06/24 00:39:55;;;;;;;5.70;1.83;;;;;;;25.41;46.97;100658.75;441989;116;924541;-70
2021/06/24 00:40:59;;;;;;;6.61;2.24;;;;;;;25.41;47.04;100662.37;440582;117;922833;-69
2021/06/24 00:42:04;;;;;;;8.25;2.19;;;;;;;25.41;47.08;100664.33;441187;116;922615;-69
2021/06/24 00:43:12;;;;;;;6.49;2.02;;;;;;;25.42;47.00;100663.16;440892;116;922597;-69
2021/06/24 00:44:15;;;;;;;3.38;2.09;;;;;;;25.41;47.06;100665.16;439506;117;922646;-69
2021/06/24 00:45:19;;;;;;;3.93;2.26;;;;;;;25.43;47.05;100667.61;441441;116;922614;-69
2021/06/24 00:46:24;;;;;;;5.54;2.13;;;;;;;25.43;46.95;100670.41;440732;119;924043;-69
2021/06/24 00:47:28;;;;;;;4.91;2.29;;;;;;;25.44;46.86;100663.69;431752;120;926132;-69
2021/06/24 00:48:31;;;;;;;3.59;1.87;;;;;;;25.45;46.73;100665.34;431718;119;924529;-69
2021/06/24 00:49:35;;;;;;;4.89;2.11;;;;;;;25.47;46.74;100668.67;438772;118;924120;-68
2021/06/24 00:50:43;;;;;;;3.72;1.98;;;;;;;25.46;46.73;100673.42;440477;118;930471;-69
2021/06/24 00:51:47;;;;;;;3.96;1.91;;;;;;;25.47;46.76;100672.26;443198;116;926121;-69
2021/06/24 00:52:51;;;;;;;6.69;2.29;;;;;;;25.48;46.77;100664.71;442137;119;924008;-69
2021/06/24 00:53:55;;;;;;;4.14;2.35;;;;;;;25.48;46.81;100665.55;441000;116;924162;-70
2021/06/24 00:54:59;;;;;;;3.94;2.56;;;;;;;25.49;46.79;100677.54;439623;118;932787;-69
2021/06/24 00:56:06;;;;;;;5.61;1.95;;;;;;;25.48;46.65;100664.71;440512;119;933934;-70
2021/06/24 00:57:10;;;;;;;6.16;2.21;;;;;;;25.48;46.59;100664.71;440082;117;925040;-70
2021/06/24 00:58:25;;;;;;;3.26;2.06;;;;;;;25.47;46.67;100668.67;430356;121;924019;-70
2021/06/24 00:59:26;;;;;;;4.72;2.37;;;;;;;25.46;46.56;100676.22;431427;118;924150;-68
2021/06/24 01:00:30;;;;;;;6.15;2.16;;;;;;;25.47;46.39;100677.05;439562;118;922895;-69
2021/06/24 01:01:34;;;;;;;3.70;2.14;;;;;;;25.47;46.27;100674.25;439822;118;923878;-69
2021/06/24 01:02:39;;;;;;;5.26;2.56;;;;;;;25.47;46.15;100672.26;441267;116;923963;-68
2021/06/24 01:03:42;;;;;;;5.08;2.31;;;;;;;25.48;45.91;100668.33;441377;116;924080;-68
2021/06/24 01:04:46;;;;;;;5.12;2.54;;;;;;;25.50;45.90;100668.86;440913;116;924080;-69
2021/06/24 01:05:51;;;;;;;7.62;2.28;;;;;;;25.50;45.84;100666.06;438346;118;931992;-69
2021/06/24 01:06:55;;;;;;;5.57;2.07;;;;;;;25.50;45.89;100665.23;440191;118;930503;-70
2021/06/24 01:08:00;;;;;;;2.81;2.10;;;;;;;25.52;45.68;100672.18;439581;118;922927;-70
2021/06/24 01:09:05;;;;;;;3.99;2.66;;;;;;;25.55;45.50;100668.75;430698;123;922589;-71
2021/06/24 01:10:10;;;;;;;3.99;2.22;;;;;;;25.56;45.33;100676.02;430209;122;923021;-70
2021/06/24 01:11:14;;;;;;;4.69;2.42;;;;;;;25.57;45.20;100671.27;436906;121;922862;-69
2021/06/24 01:12:19;;;;;;;6.16;2.29;;;;;;;25.58;45.19;100670.94;432748;120;923045;-70
2021/06/24 01:13:23;;;;;;;3.11;2.06;;;;;;;25.60;45.17;100671.45;432646;121;930485;-70
2021/06/24 01:14:28;;;;;;;4.10;2.42;;;;;;;25.61;45.02;100664.73;432448;120;922691;-70
2021/06/24 01:15:32;;;;;;;3.39;2.00;;;;;;;25.63;44.99;100667.23;432805;120;922790;-70
2021/06/24 01:16:37;;;;;;;4.26;2.35;;;;;;;25.64;44.95;100674.44;436618;120;922535;-70
2021/06/24 01:17:41;;;;;;;5.08;1.87;;;;;;;25.66;44.81;100672.17;435161;121;922704;-69
2021/06/24 01:18:48;;;;;;;3.86;2.04;;;;;;;25.68;44.77;100678.28;432442;120;923301;-70
2021/06/24 01:19:54;;;;;;;5.43;2.83;;;;;;;25.69;44.64;100674.36;434219;121;922772;-70
2021/06/24 01:20:59;;;;;;;9.15;2.49;;;;;;;25.70;44.59;100668.44;433143;121;922707;-70
2021/06/24 01:22:03;;;;;;;9.97;2.98;;;;;;;25.72;44.56;100676.51;430581;122;924098;-71
2021/06/24 01:23:08;;;;;;;5.85;2.56;;;;;;;25.72;44.57;100668.95;429325;122;932731;-69
2021/06/24 01:24:12;;;;;;;4.36;2.33;;;;;;;25.74;44.47;100677.03;431657;120;926483;-70
2021/06/24 01:25:16;;;;;;;3.69;2.33;;;;;;;25.75;44.41;100675.87;430676;121;926787;-68
2021/06/24 01:26:21;;;;;;;5.85;1.96;;;;;;;25.76;44.38;100677.53;433275;121;923102;-69
2021/06/24 01:27:26;;;;;;;6.15;1.92;;;;;;;25.77;44.39;100687.56;436726;121;932039;-70
2021/06/24 01:28:29;;;;;;;5.72;2.15;;;;;;;25.79;44.43;100678.88;433467;120;924059;-69
2021/06/24 01:29:33;;;;;;;4.62;2.25;;;;;;;25.79;44.39;100682.50;431593;121;931976;-70
2021/06/24 01:30:39;;;;;;;6.52;2.38;;;;;;;25.80;44.34;100688.92;434418;121;924785;-70
2021/06/24 01:31:57;;;;;;;6.68;3.19;;;;;;;25.80;44.35;100684.16;430720;121;924044;-70
2021/06/24 01:33:37;;;;;;;6.93;3.44;;;;;;;25.82;44.34;100681.86;430186;121;922840;-73
2021/06/24 01:34:42;;;;;;;5.22;3.01;;;;;;;25.83;44.42;100677.11;440707;118;922620;-74
2021/06/24 01:35:47;;;;;;;7.97;4.19;;;;;;;25.83;44.37;100682.69;442607;119;924058;-71
2021/06/24 01:36:51;;;;;;;7.80;3.15;;;;;;;25.81;44.38;100679.38;440740;119;924507;-71
2021/06/24 01:37:58;;;;;;;5.16;1.92;;;;;;;25.82;44.44;100686.62;440803;117;924619;-69
2021/06/24 01:39:06;;;;;;;2.84;2.17;;;;;;;25.83;44.42;100688.28;439498;119;924514;-70
2021/06/24 01:40:13;;;;;;;3.91;2.03;;;;;;;25.82;44.48;100681.86;441359;118;922785;-71
2021/06/24 01:41:17;;;;;;;10.53;2.06;;;;;;;25.83;44.45;100691.07;439942;116;922734;-72
2021/06/24 01:42:22;;;;;;;5.95;2.42;;;;;;;25.83;44.46;100689.11;438759;119;922637;-71
2021/06/24 01:43:26;;;;;;;7.38;2.15;;;;;;;25.83;44.54;100686.31;440787;116;923127;-73
2021/06/24 01:44:33;;;;;;;5.38;2.08;;;;;;;25.83;44.56;100694.70;441419;116;924553;-71
2021/06/24 01:45:49;;;;;;;3.91;2.07;;;;;;;25.84;44.50;100690.77;439926;116;924569;-72
2021/06/24 01:46:53;;;;;;;5.22;2.39;;;;;;;25.84;44.42;100690.77;445170;118;924465;-72
2021/06/24 01:47:57;;;;;;;4.29;2.22;;;;;;;25.84;44.47;100690.77;442250;118;922773;-71
2021/06/24 01:49:01;;;;;;;5.96;4.36;;;;;;;25.82;44.48;100693.03;440718;116;924871;-73
2021/06/24 01:50:11;;;;;;;4.89;3.28;;;;;;;25.81;44.42;100693.34;442424;116;922909;-72
2021/06/24 01:51:15;;;;;;;4.16;2.69;;;;;;;25.79;44.47;100690.88;438953;118;924360;-70
2021/06/24 01:52:19;;;;;;;6.28;2.75;;;;;;;25.77;44.50;100695.95;441857;116;922560;-70
2021/06/24 01:53:23;;;;;;;3.07;2.21;;;;;;;25.75;44.37;100690.66;438962;116;926159;-72
2021/06/24 01:54:28;;;;;;;4.86;1.78;;;;;;;25.73;44.29;100690.17;440996;116;922672;-72
2021/06/24 01:55:32;;;;;;;2.62;1.89;;;;;;;25.71;44.27;100686.85;441140;116;933205;-71
2021/06/24 01:56:38;;;;;;;7.70;2.47;;;;;;;25.69;44.20;100694.70;439879;116;933202;-72
2021/06/24 01:57:43;;;;;;;4.56;2.19;;;;;;;25.67;44.24;100693.38;445872;119;924027;-70
2021/06/24 01:58:49;;;;;;;5.05;1.97;;;;;;;25.66;44.33;100692.55;439112;118;924534;-71
2021/06/24 02:00:13;;;;;;;5.58;1.98;;;;;;;25.65;44.14;100688.09;441514;116;922613;-71
2021/06/24 02:01:19;;;;;;;6.97;2.52;;;;;;;25.66;43.97;100705.69;439998;116;922985;-71
2021/06/24 02:02:25;;;;;;;3.49;2.07;;;;;;;25.63;43.93;100704.36;439559;119;922577;-71
2021/06/24 02:03:28;;;;;;;4.16;1.74;;;;;;;25.63;44.04;100701.56;439441;117;922633;-71
2021/06/24 02:04:32;;;;;;;4.75;1.91;;;;;;;25.63;43.96;100700.73;443594;118;922575;-71
2021/06/24 02:05:36;;;;;;;5.21;2.12;;;;;;;25.62;43.89;100699.08;430116;121;930609;-71
2021/06/24 02:06:40;;;;;;;7.99;2.13;;;;;;;25.62;43.91;100701.87;433139;119;930611;-71
2021/06/24 02:07:46;;;;;;;4.93;2.27;;;;;;;25.62;44.01;100713.05;440431;118;922698;-72
2021/06/24 02:08:54;;;;;;;5.88;1.86;;;;;;;25.62;44.00;100711.08;438802;117;922595;-69
2021/06/24 02:10:00;;;;;;;4.61;1.69;;;;;;;25.63;43.88;100712.73;439109;118;923221;-72
2021/06/24 02:11:05;;;;;;;4.62;2.16;;;;;;;25.64;43.92;100707.95;438305;117;922792;-71
2021/06/24 02:12:11;;;;;;;2.90;2.29;;;;;;;25.64;43.85;100705.98;438307;117;924088;-71
2021/06/24 02:13:17;;;;;;;3.88;2.04;;;;;;;25.62;43.92;100702.70;441033;117;922563;-71
2021/06/24 02:14:21;;;;;;;4.65;2.31;;;;;;;25.64;43.99;100705.98;437099;118;924131;-71
2021/06/24 02:15:25;;;;;;;3.78;2.04;;;;;;;25.66;43.99;100712.10;439326;119;930987;-72
2021/06/24 02:16:30;;;;;;;4.16;1.98;;;;;;;25.67;43.92;100716.55;437770;118;922630;-71
2021/06/24 02:17:35;;;;;;;4.21;1.84;;;;;;;25.67;43.92;100713.76;439336;118;924592;-71
2021/06/24 02:18:40;;;;;;;2.99;1.86;;;;;;;25.68;44.02;100706.21;431474;119;924100;-71
2021/06/24 02:19:46;;;;;;;5.88;2.61;;;;;;;25.69;44.02;100716.25;431119;119;924595;-70
2021/06/24 02:20:52;;;;;;;6.93;2.16;;;;;;;25.70;43.96;100712.30;421386;123;924171;-71
2021/06/24 02:22:01;;;;;;;4.19;2.08;;;;;;;25.70;43.92;100717.88;434824;119;925197;-71
2021/06/24 02:23:07;;;;;;;5.33;2.09;;;;;;;25.70;43.94;100720.67;442327;119;924600;-71
2021/06/24 02:24:13;;;;;;;8.13;2.17;;;;;;;25.70;44.00;100707.53;438986;119;924053;-70
2021/06/24 02:25:18;;;;;;;4.12;1.79;;;;;;;25.72;43.99;100704.44;436540;119;924093;-70
2021/06/24 02:26:28;;;;;;;7.89;2.30;;;;;;;25.72;43.85;100708.06;423811;121;922783;-70
2021/06/24 02:27:34;;;;;;;5.35;1.99;;;;;;;25.72;43.83;100710.02;432353;118;923876;-70
2021/06/24 02:28:43;;;;;;;5.05;2.56;;;;;;;25.71;43.89;100711.16;437629;119;924024;-71
2021/06/24 02:29:49;;;;;;;5.47;2.38;;;;;;;25.68;43.94;100703.42;437304;118;926048;-70
2021/06/24 02:30:53;;;;;;;3.83;1.84;;;;;;;25.68;43.97;100706.21;438950;118;924035;-70
2021/06/24 02:31:57;;;;;;;8.81;2.31;;;;;;;25.67;43.97;100707.34;438654;117;922761;-70
2021/06/24 02:33:10;;;;;;;5.54;2.78;;;;;;;25.66;44.14;100703.72;433803;119;924270;-70
2021/06/24 02:34:17;;;;;;;2.90;2.26;;;;;;;25.66;44.12;100700.93;441520;117;922582;-70
2021/06/24 02:35:36;;;;;;;4.63;2.01;;;;;;;25.68;44.05;100695.04;437943;119;926632;-71
2021/06/24 02:36:42;;;;;;;4.19;2.36;;;;;;;25.68;44.03;100695.04;429694;121;924938;-71
2021/06/24 02:37:47;;;;;;;3.93;2.19;;;;;;;25.69;43.87;100705.08;439710;118;925569;-70
2021/06/24 02:39:08;;;;;;;3.28;2.36;;;;;;;25.68;43.67;100698.66;438802;117;924712;-71
2021/06/24 02:40:16;;;;;;;3.79;2.36;;;;;;;25.67;43.66;100698.97;440272;118;923985;-71
2021/06/24 02:41:20;;;;;;;4.42;2.13;;;;;;;25.63;43.64;100698.77;437862;118;924788;-70
2021/06/24 02:42:25;;;;;;;5.63;2.26;;;;;;;25.59;43.71;100697.72;438541;119;925711;-70
2021/06/24 02:43:29;;;;;;;6.18;2.14;;;;;;;25.57;43.80;100701.98;436756;118;933522;-71
2021/06/24 02:44:34;;;;;;;3.02;1.62;;;;;;;25.54;43.91;100710.94;438914;117;924508;-71
2021/06/24 02:45:41;;;;;;;4.39;1.82;;;;;;;25.53;44.04;100712.06;439177;118;924164;-70
2021/06/24 02:46:46;;;;;;;4.32;2.26;;;;;;;25.53;44.07;100712.06;442930;117;924534;-70
2021/06/24 02:47:50;;;;;;;6.38;2.01;;;;;;;25.55;44.30;100715.38;437461;117;924511;-70
2021/06/24 02:48:56;;;;;;;5.63;2.27;;;;;;;25.54;44.46;100720.14;439738;117;924662;-69
2021/06/24 02:50:03;;;;;;;5.78;1.95;;;;;;;25.54;44.55;100719.31;438714;117;923142;-71
2021/06/24 02:51:07;;;;;;;9.55;1.81;;;;;;;25.53;44.73;100712.06;432829;119;924744;-70
2021/06/24 02:52:16;;;;;;;5.41;2.49;;;;;;;25.53;44.75;100717.65;433929;118;925050;-71
2021/06/24 02:53:22;;;;;;;5.73;2.37;;;;;;;25.50;45.05;100713.53;439064;118;922555;-70
2021/06/24 02:54:28;;;;;;;3.35;2.07;;;;;;;25.48;45.13;100715.80;439577;119;922962;-72
2021/06/24 02:55:47;;;;;;;8.26;2.29;;;;;;;25.47;45.35;100714.14;439538;118;922713;-76
2021/06/24 02:57:05;;;;;;;3.34;2.22;;;;;;;25.48;45.41;100714.97;438116;119;932130;-74
2021/06/24 02:58:28;;;;;;;4.27;2.45;;;;;;;25.48;45.15;100709.38;437045;119;923081;-72
2021/06/24 02:59:34;;;;;;;9.42;3.06;;;;;;;25.47;44.86;100702.17;437546;118;922620;-72
2021/06/24 03:00:39;;;;;;;12.27;2.75;;;;;;;25.47;45.32;100704.96;442243;116;923128;-71
2021/06/24 03:01:48;;;;;;;6.60;2.54;;;;;;;25.45;45.65;100708.06;427322;117;923681;-71
2021/06/24 03:02:53;;;;;;;11.19;2.44;;;;;;;25.46;45.65;100711.68;438859;117;923057;-72
2021/06/24 03:03:58;;;;;;;7.77;2.54;;;;;;;25.46;45.84;100711.68;439407;117;922639;-72
2021/06/24 03:05:03;;;;;;;5.59;2.58;;;;;;;25.45;46.12;100708.06;432615;119;922726;-71
2021/06/24 03:06:08;;;;;;;4.39;2.16;;;;;;;25.47;46.35;100710.55;431738;119;922813;-71
2021/06/24 03:07:12;;;;;;;5.47;2.39;;;;;;;25.47;46.47;100710.55;437708;119;922754;-71
2021/06/24 03:08:35;;;;;;;5.99;2.34;;;;;;;25.48;46.32;100703.80;440343;117;922630;-73
2021/06/24 03:09:40;;;;;;;4.79;2.27;;;;;;;25.48;46.42;100715.80;441190;117;922606;-71
2021/06/24 03:10:44;;;;;;;4.81;2.23;;;;;;;25.48;46.56;100712.17;442094;114;922672;-71
2021/06/24 03:11:49;;;;;;;7.13;2.31;;;;;;;25.48;46.48;100713.00;440028;118;924564;-72
2021/06/24 03:12:53;;;;;;;6.46;2.27;;;;;;;25.50;46.23;100707.95;440815;117;923877;-72
2021/06/24 03:13:58;;;;;;;6.31;2.68;;;;;;;25.52;46.12;100704.86;440389;119;923909;-71
2021/06/24 03:15:09;;;;;;;3.79;2.74;;;;;;;25.54;45.94;100710.94;443546;117;927176;-71
2021/06/24 03:16:13;;;;;;;4.74;2.56;;;;;;;25.56;45.53;100708.70;440078;117;924055;-73
2021/06/24 03:17:17;;;;;;;6.89;2.28;;;;;;;25.58;45.21;100717.61;439380;117;924122;-71
2021/06/24 03:18:23;;;;;;;5.76;2.33;;;;;;;25.59;44.89;100703.31;439712;118;924007;-72
2021/06/24 03:19:27;;;;;;;4.90;2.09;;;;;;;25.61;44.62;100709.42;441252;119;924680;-71
2021/06/24 03:20:43;;;;;;;6.62;2.65;;;;;;;25.64;44.40;100710.74;439573;119;925025;-72
2021/06/24 03:21:48;;;;;;;7.49;2.24;;;;;;;25.66;44.35;100716.86;439486;118;924092;-71
2021/06/24 03:22:57;;;;;;;7.78;2.47;;;;;;;25.68;44.28;100721.00;439069;118;922569;-70
2021/06/24 03:24:00;;;;;;;4.89;2.27;;;;;;;25.70;44.24;100715.09;442044;117;923124;-73
2021/06/24 03:25:06;;;;;;;6.65;2.19;;;;;;;25.73;44.19;100720.06;440481;119;924665;-73
2021/06/24 03:26:11;;;;;;;12.23;2.71;;;;;;;25.75;44.30;100713.01;440484;117;926950;-72
2021/06/24 03:27:16;;;;;;;7.22;2.51;;;;;;;25.78;44.43;100716.33;431164;119;923798;-70
2021/06/24 03:28:24;;;;;;;6.77;2.23;;;;;;;25.80;44.55;100712.09;434517;118;924203;-72
2021/06/24 03:29:30;;;;;;;7.89;2.46;;;;;;;25.82;44.91;100715.38;430888;119;924389;-72
2021/06/24 03:30:34;;;;;;;11.12;2.48;;;;;;;25.83;44.88;100719.00;439848;117;926355;-70
2021/06/24 03:31:38;;;;;;;4.48;2.26;;;;;;;25.83;44.93;100713.42;442372;116;926925;-70
2021/06/24 03:32:42;;;;;;;6.46;2.06;;;;;;;25.83;45.19;100719.00;440551;117;922784;-70
2021/06/24 03:33:46;;;;;;;16.51;2.31;;;;;;;25.82;45.33;100715.38;442063;115;925854;-70
2021/06/24 03:34:50;;;;;;;8.40;2.25;;;;;;;25.81;45.48;100718.48;440341;117;931961;-71
2021/06/24 03:35:55;;;;;;;13.38;3.22;;;;;;;25.80;45.60;100714.06;431751;119;922735;-71
2021/06/24 03:37:00;;;;;;;5.22;2.14;;;;;;;25.79;45.36;100716.02;433166;119;924212;-73
2021/06/24 03:38:06;;;;;;;9.06;2.43;;;;;;;25.78;44.86;100714.36;438898;118;922728;-72
2021/06/24 03:39:10;;;;;;;8.52;2.50;;;;;;;25.78;44.53;100717.16;438083;119;924001;-70
2021/06/24 03:40:18;;;;;;;9.86;2.39;;;;;;;25.79;44.43;100727.20;438127;118;923960;-71
2021/06/24 03:41:25;;;;;;;6.47;2.14;;;;;;;25.79;44.84;100724.41;438797;117;924354;-70
2021/06/24 03:42:30;;;;;;;4.66;2.62;;;;;;;25.81;44.78;100730.48;442087;117;922701;-72
2021/06/24 03:43:34;;;;;;;7.54;2.56;;;;;;;25.83;44.94;100725.42;442155;117;925445;-70
2021/06/24 03:44:38;;;;;;;6.95;2.71;;;;;;;25.84;45.23;100729.88;438930;118;932050;-70
2021/06/24 03:45:43;;;;;;;6.09;2.78;;;;;;;25.84;45.33;100724.29;439919;117;924539;-71
2021/06/24 03:46:47;;;;;;;8.39;2.41;;;;;;;25.85;45.92;100722.33;438532;118;932440;-71
2021/06/24 03:47:52;;;;;;;7.70;2.28;;;;;;;25.86;46.12;100724.78;438061;118;932023;-72
2021/06/24 03:48:56;;;;;;;5.89;2.40;;;;;;;25.87;45.84;100732.03;441420;119;932509;-70
2021/06/24 03:50:01;;;;;;;3.56;2.00;;;;;;;25.89;45.47;100721.37;438622;118;922696;-71
2021/06/24 03:51:05;;;;;;;7.44;2.89;;;;;;;25.91;44.68;100733.08;438912;118;923008;-70
2021/06/24 03:52:10;;;;;;;6.01;3.14;;;;;;;25.92;44.36;100734.70;442846;119;924562;-70
2021/06/24 03:53:14;;;;;;;4.07;2.85;;;;;;;25.94;44.17;100735.23;438887;117;923071;-71
2021/06/24 03:54:18;;;;;;;5.21;3.17;;;;;;;25.96;44.18;100732.96;439552;117;922818;-71
2021/06/24 03:55:40;;;;;;;4.84;3.18;;;;;;;25.99;44.04;100737.08;428220;119;922720;-71
2021/06/24 03:56:45;;;;;;;9.67;2.84;;;;;;;26.00;44.00;100733.98;427024;121;922602;-71
2021/06/24 03:57:51;;;;;;;6.46;2.96;;;;;;;26.03;43.93;100732.51;430886;121;922624;-71
2021/06/24 03:58:58;;;;;;;7.26;3.00;;;;;;;26.04;43.92;100736.96;434055;119;922994;-70
2021/06/24 04:00:04;;;;;;;6.51;3.21;;;;;;;26.06;43.84;100731.90;431309;121;922631;-70
2021/06/24 04:01:10;;;;;;;14.15;3.18;;;;;;;26.07;43.82;100731.59;425195;121;930544;-70
2021/06/24 04:02:14;;;;;;;12.06;2.74;;;;;;;26.09;43.82;100731.25;431551;119;922676;-70
2021/06/24 04:03:17;;;;;;;7.89;2.94;;;;;;;26.10;43.69;100730.12;431404;121;922914;-72
2021/06/24 04:04:23;;;;;;;10.96;2.60;;;;;;;26.11;43.70;100723.39;428144;120;922755;-71
2021/06/24 04:05:31;;;;;;;6.28;2.56;;;;;;;26.11;43.70;100720.59;435694;121;923201;-71
2021/06/24 04:06:37;;;;;;;5.12;1.95;;;;;;;26.10;43.67;100719.77;437145;120;923174;-71
2021/06/24 04:07:41;;;;;;;8.31;2.17;;;;;;;26.09;43.71;100726.50;431185;121;922742;-70
2021/06/24 04:08:45;;;;;;;6.72;2.34;;;;;;;26.10;43.82;100721.73;433765;118;922566;-72
2021/06/24 04:09:51;;;;;;;5.79;2.29;;;;;;;26.08;43.98;100733.22;435501;121;924194;-72
2021/06/24 04:10:55;;;;;;;10.01;2.19;;;;;;;26.09;44.09;100732.08;430310;121;924060;-71
2021/06/24 04:11:59;;;;;;;6.52;2.34;;;;;;;26.10;44.15;100732.91;431565;121;922859;-72
2021/06/24 04:13:22;;;;;;;8.40;1.90;;;;;;;26.10;44.12;100730.95;430443;121;922675;-70
2021/06/24 04:14:26;;;;;;;6.98;2.32;;;;;;;26.11;44.17;100735.41;430191;123;924586;-70
2021/06/24 04:15:34;;;;;;;4.48;1.99;;;;;;;26.12;44.16;100731.47;430062;122;933401;-71
2021/06/24 04:16:40;;;;;;;4.85;1.86;;;;;;;26.14;44.15;100733.93;416251;124;926900;-70
2021/06/24 04:17:44;;;;;;;6.44;1.73;;;;;;;26.14;44.18;100731.96;430400;121;924033;-72
2021/06/24 04:18:49;;;;;;;9.76;2.27;;;;;;;26.16;44.19;100737.25;438044;119;926170;-71
2021/06/24 04:19:53;;;;;;;4.56;1.86;;;;;;;26.18;44.16;100725.77;439381;118;930539;-72
2021/06/24 04:20:57;;;;;;;6.76;2.73;;;;;;;26.18;44.15;100731.35;429933;120;922647;-70
2021/06/24 04:22:02;;;;;;;6.94;2.10;;;;;;;26.16;44.27;100743.66;430368;121;925119;-69
2021/06/24 04:23:08;;;;;;;4.93;2.32;;;;;;;26.15;44.45;100739.21;435631;118;924065;-70
2021/06/24 04:24:23;;;;;;;7.16;1.99;;;;;;;26.15;44.63;100738.38;437423;118;924012;-69
2021/06/24 04:25:29;;;;;;;6.34;2.28;;;;;;;26.13;44.79;100733.09;438071;118;924148;-70
2021/06/24 04:26:36;;;;;;;8.56;3.57;;;;;;;26.14;44.82;100728.34;429334;122;932023;-69
2021/06/24 04:27:43;;;;;;;5.55;3.33;;;;;;;26.16;44.85;100734.45;426892;121;926110;-70
2021/06/24 04:28:48;;;;;;;6.48;2.72;;;;;;;26.18;44.90;100734.15;429120;122;924639;-71
2021/06/24 04:29:53;;;;;;;13.91;3.16;;;;;;;26.16;44.90;100735.28;429664;121;924080;-71
2021/06/24 04:30:57;;;;;;;6.45;3.75;;;;;;;26.19;45.01;100730.22;439691;118;924554;-70
2021/06/24 04:32:01;;;;;;;5.49;3.14;;;;;;;26.20;45.01;100729.05;438320;119;925316;-70
2021/06/24 04:33:06;;;;;;;6.82;3.48;;;;;;;26.22;44.95;100732.36;439133;118;926223;-69
2021/06/24 04:34:12;;;;;;;8.29;3.09;;;;;;;26.23;45.04;100731.27;435417;121;924500;-71
2021/06/24 04:35:18;;;;;;;6.51;3.30;;;;;;;26.24;45.11;100739.34;435253;118;924001;-71
2021/06/24 04:36:24;;;;;;;6.40;3.27;;;;;;;26.26;45.11;100739.00;438115;118;924128;-72
2021/06/24 04:37:29;;;;;;;7.01;3.20;;;;;;;26.26;45.15;100742.63;436911;119;926039;-71
2021/06/24 04:38:33;;;;;;;7.55;2.94;;;;;;;26.26;45.25;100739.83;437899;119;924497;-70
2021/06/24 04:39:38;;;;;;;4.82;2.71;;;;;;;26.27;45.19;100726.69;437753;120;924106;-72
2021/06/24 04:40:45;;;;;;;11.21;3.35;;;;;;;26.27;45.23;100727.52;429666;122;924596;-71
2021/06/24 04:41:49;;;;;;;7.08;3.22;;;;;;;26.28;45.42;100736.73;429531;121;924176;-72
2021/06/24 04:42:52;;;;;;;10.62;2.73;;;;;;;26.29;45.64;100743.98;437927;121;924029;-70
2021/06/24 04:43:58;;;;;;;11.73;3.25;;;;;;;26.29;45.88;100732.80;438624;118;924062;-72
2021/06/24 04:45:06;;;;;;;7.77;2.48;;;;;;;26.28;45.82;100745.94;438097;120;924027;-71
2021/06/24 04:46:12;;;;;;;8.27;3.00;;;;;;;26.30;45.70;100749.23;437709;120;924039;-72
2021/06/24 04:47:17;;;;;;;8.95;2.81;;;;;;;26.30;45.60;100740.84;429709;122;922704;-72
2021/06/24 04:48:21;;;;;;;12.95;3.15;;;;;;;26.31;45.49;100741.67;429701;121;922759;-70
2021/06/24 04:49:26;;;;;;;5.42;2.62;;;;;;;26.31;45.44;100741.67;436563;120;925436;-70
2021/06/24 04:50:39;;;;;;;11.46;2.52;;;;;;;26.32;45.42;100744.16;438704;118;924579;-71
2021/06/24 04:51:41;;;;;;;14.10;3.06;;;;;;;26.34;45.37;100741.89;438136;119;922760;-71
2021/06/24 04:52:45;;;;;;;11.34;2.62;;;;;;;26.35;45.33;100737.95;430220;121;923007;-71
2021/06/24 04:53:50;;;;;;;10.61;2.50;;;;;;;26.36;45.18;100741.55;430303;121;930422;-71
2021/06/24 04:54:55;;;;;;;9.86;2.78;;;;;;;26.36;45.29;100741.55;438043;118;922849;-71
2021/06/24 04:55:59;;;;;;;6.44;2.62;;;;;;;26.36;45.33;100744.34;439091;118;922636;-71
2021/06/24 04:57:04;;;;;;;8.33;2.84;;;;;;;26.37;45.39;100751.59;438348;120;922607;-70
2021/06/24 04:58:22;;;;;;;7.87;2.76;;;;;;;26.36;45.51;100742.37;424103;124;931088;-70
2021/06/24 04:59:28;;;;;;;20.29;3.13;;;;;;;26.38;45.64;100744.87;423076;125;922966;-71
2021/06/24 05:00:39;;;;;;;19.17;3.19;;;;;;;26.39;45.79;100747.36;419441;124;923075;-71
2021/06/24 05:01:48;;;;;;;12.86;4.01;;;;;;;26.41;45.89;100744.25;427706;122;922633;-71
2021/06/24 05:03:10;;;;;;;11.07;2.87;;;;;;;26.42;45.83;100743.09;430211;122;922999;-72